< Typhoon 199718 1997 Season Typhoon 199720 >
Typhoon 199719 (OLIWA)
General InformationTrack Information on Google MapsDetailed Wind InformationList of All Images || NewsDisaster Info.ResourceGoogle EarthGE AnimationAtom FeedGeoJSON
Detalied Best Track (Time Zone = UTC)
Year Month Day Hour Lat. Long. Pressure (hPa) Wind (kt) Class Image Chart
1997 9 3 18 13.6 180.4 1000 0 7 Image Chart
1997 9 4 00 13.6 179.7 996 35 3 Image Chart
1997 9 4 06 13.7 179.1 996 35 3 Image Chart
1997 9 4 12 13.9 178.5 996 35 3 Image Chart
1997 9 4 18 14.2 177.7 994 40 3 Image Chart
1997 9 5 00 14.4 176.8 992 40 3 Image Chart
1997 9 5 06 14.5 175.6 992 40 3 Image Chart
1997 9 5 12 14.7 174.2 992 40 3 Image Chart
1997 9 5 18 14.9 172.5 990 45 3 Image Chart
1997 9 6 00 15.2 170.7 990 45 3 Image Chart
1997 9 6 06 15.8 169.0 990 45 3 Image Chart
1997 9 6 12 16.3 167.5 985 50 4 Image Chart
1997 9 6 18 16.7 166.3 985 50 4 Image Chart
1997 9 7 00 17.1 165.4 985 50 4 Image Chart
1997 9 7 06 17.5 164.8 985 50 4 Image Chart
1997 9 7 12 17.8 164.0 980 55 4 Image Chart
1997 9 7 18 18.1 163.3 980 55 4 Image Chart
1997 9 8 00 18.3 162.5 980 55 4 Image Chart
1997 9 8 06 18.3 161.5 975 60 4 Image Chart
1997 9 8 12 18.2 160.2 975 60 4 Image Chart
1997 9 8 18 18.1 159.0 970 65 5 Image Chart
1997 9 9 00 18.0 157.5 965 70 5 Image Chart
1997 9 9 06 18.2 156.3 955 75 5 Image Chart
1997 9 9 12 18.3 155.1 945 80 5 Image Chart
1997 9 9 18 18.5 153.6 935 90 5 Image Chart
1997 9 10 00 18.7 152.3 925 95 5 Image Chart
1997 9 10 06 18.9 150.8 920 100 5 Image Chart
1997 9 10 12 19.0 149.5 920 100 5 Image Chart
1997 9 10 18 19.2 148.2 915 100 5 Image Chart
1997 9 11 00 19.4 146.8 915 100 5 Image Chart
1997 9 11 06 19.9 145.5 915 100 5 Image Chart
1997 9 11 12 20.3 144.1 920 100 5 Image Chart
1997 9 11 18 20.6 142.7 920 100 5 Image Chart
1997 9 12 00 21.1 141.5 920 100 5 Image Chart
1997 9 12 06 21.8 140.2 920 100 5 Image Chart
1997 9 12 12 22.4 138.8 925 95 5 Image Chart
1997 9 12 18 23.2 137.4 930 90 5 Image Chart
1997 9 13 00 24.0 136.2 935 90 5 Image Chart
1997 9 13 06 25.0 135.0 940 85 5 Image Chart
1997 9 13 12 25.9 134.1 945 85 5 Image Chart
1997 9 13 15 26.5 133.4 950 80 5 Image Chart
1997 9 13 18 26.8 132.9 950 80 5 Image Chart
1997 9 13 21 27.2 132.2 950 80 5 Image Chart
1997 9 14 00 27.5 131.6 950 80 5 Image Chart
1997 9 14 03 27.7 131.1 950 80 5 Image Chart
1997 9 14 06 27.8 130.7 955 75 5 Image Chart
1997 9 14 09 28.0 130.3 955 75 5 Image Chart
1997 9 14 12 28.2 130.0 955 75 5 Image Chart
1997 9 14 15 28.3 129.9 955 75 5 Image Chart
1997 9 14 18 28.5 129.8 955 75 5 Image Chart
1997 9 14 21 28.7 129.7 955 75 5 Image Chart
1997 9 15 00 28.9 129.6 955 75 5 Image Chart
1997 9 15 03 29.2 129.6 955 75 5 Image Chart
1997 9 15 06 29.4 129.6 955 75 5 Image Chart
1997 9 15 09 29.7 129.6 955 75 5 Image Chart
1997 9 15 12 30.0 129.7 960 75 5 Image Chart
1997 9 15 15 30.3 129.8 960 75 5 Image Chart
1997 9 15 18 30.6 130.0 960 75 5 Image Chart
1997 9 15 21 31.0 130.1 960 75 5 Image Chart
1997 9 15 23 31.2 130.3 960 75 5 Image Chart
1997 9 16 00 31.5 130.4 965 70 5 Image Chart
1997 9 16 03 32.1 130.8 970 65 5 Image Chart
1997 9 16 06 32.9 131.3 980 55 4 Image Chart
1997 9 16 09 33.6 132.1 985 50 4 Image Chart
1997 9 16 12 34.2 132.9 992 45 3 Image Chart
1997 9 16 15 34.7 133.7 998 35 3 Image Chart
1997 9 16 18 35.3 134.9 1000 35 3 Image Chart
1997 9 16 21 35.9 135.9 1002 0 6 Image Chart
1997 9 17 00 37.1 137.3 1004 0 6 Image Chart
1997 9 17 06 39.2 138.6 1004 0 6 Image Chart
1997 9 17 12 42.0 141.6 1008 0 6 Image Chart
1997 9 17 18 43.3 145.8 1008 0 6 Image Chart
1997 9 18 00 45.4 150.3 1008 0 6 Image Chart
1997 9 18 06 46.0 154.0 1008 0 6 Image Chart
1997 9 18 12 46.8 157.5 1008 0 6 Image Chart
1997 9 18 18 47.6 163.3 1010 0 6 Image Chart
1997 9 19 00 47.3 168.9 1012 0 6 Image Chart
1997 9 19 06 47.2 174.7 1012 0 6 Image Chart
1997 9 19 12 47.1 180.4 1012 0 6 Image Chart
Japan Meteorological Agency Best Track Data | Correction Date : 2013-11-22
< Typhoon 199718 1997 Season Typhoon 199720 >

Help